sensor_id;sensor_type;location;lat;lon;timestamp;pressure;altitude;pressure_sealevel;temperature;humidity
64095;BME280;50353;51.420;5.682;2023-06-26T00:01:10;100965.44;;;23.87;74.94
64095;BME280;50353;51.420;5.682;2023-06-26T00:03:36;100957.81;;;23.99;74.14
64095;BME280;50353;51.420;5.682;2023-06-26T00:06:01;100957.13;;;23.96;73.97
64095;BME280;50353;51.420;5.682;2023-06-26T00:08:27;100960.81;;;23.64;75.76
64095;BME280;50353;51.420;5.682;2023-06-26T00:10:53;100957.91;;;23.74;74.81
64095;BME280;50353;51.420;5.682;2023-06-26T00:13:18;100957.06;;;23.73;74.71
64095;BME280;50353;51.420;5.682;2023-06-26T00:15:44;100952.06;;;23.62;75.15
64095;BME280;50353;51.420;5.682;2023-06-26T00:18:09;100955.25;;;23.66;75.05
64095;BME280;50353;51.420;5.682;2023-06-26T00:20:34;100953.91;;;23.70;74.12
64095;BME280;50353;51.420;5.682;2023-06-26T00:23:00;100954.00;;;23.37;75.79
64095;BME280;50353;51.420;5.682;2023-06-26T00:25:25;100959.72;;;23.82;71.05
64095;BME280;50353;51.420;5.682;2023-06-26T00:27:50;100956.97;;;23.58;74.36
64095;BME280;50353;51.420;5.682;2023-06-26T00:30:16;100963.31;;;23.26;75.42
64095;BME280;50353;51.420;5.682;2023-06-26T00:32:41;100953.47;;;23.50;74.02
64095;BME280;50353;51.420;5.682;2023-06-26T00:35:06;100955.53;;;23.31;74.35
64095;BME280;50353;51.420;5.682;2023-06-26T00:37:32;100962.59;;;23.80;69.89
64095;BME280;50353;51.420;5.682;2023-06-26T00:39:57;100948.53;;;24.01;66.98
64095;BME280;50353;51.420;5.682;2023-06-26T00:42:22;100948.47;;;24.09;66.33
64095;BME280;50353;51.420;5.682;2023-06-26T00:44:48;100944.97;;;24.01;66.33
64095;BME280;50353;51.420;5.682;2023-06-26T00:47:15;100954.06;;;23.60;68.93
64095;BME280;50353;51.420;5.682;2023-06-26T00:49:41;100950.34;;;24.01;66.12
64095;BME280;50353;51.420;5.682;2023-06-26T00:52:06;100948.69;;;24.00;66.73
64095;BME280;50353;51.420;5.682;2023-06-26T00:54:31;100945.91;;;24.62;63.18
64095;BME280;50353;51.420;5.682;2023-06-26T00:56:57;100938.50;;;24.33;63.86
64095;BME280;50353;51.420;5.682;2023-06-26T00:59:23;100944.84;;;24.63;63.28
64095;BME280;50353;51.420;5.682;2023-06-26T01:01:48;100945.28;;;24.90;61.07
64095;BME280;50353;51.420;5.682;2023-06-26T01:04:14;100947.34;;;24.88;61.42
64095;BME280;50353;51.420;5.682;2023-06-26T01:06:44;100946.34;;;24.66;62.48
64095;BME280;50353;51.420;5.682;2023-06-26T01:09:20;100945.72;;;24.18;64.36
64095;BME280;50353;51.420;5.682;2023-06-26T01:11:46;100947.59;;;24.55;63.32
64095;BME280;50353;51.420;5.682;2023-06-26T01:14:12;100958.66;;;24.69;62.38
64095;BME280;50353;51.420;5.682;2023-06-26T01:16:38;100957.63;;;25.08;58.79
64095;BME280;50353;51.420;5.682;2023-06-26T01:19:09;100959.94;;;25.11;56.97
64095;BME280;50353;51.420;5.682;2023-06-26T01:21:40;100967.44;;;25.24;56.71
64095;BME280;50353;51.420;5.682;2023-06-26T01:24:17;100966.03;;;25.28;53.41
64095;BME280;50353;51.420;5.682;2023-06-26T01:26:46;100976.06;;;25.04;56.71
64095;BME280;50353;51.420;5.682;2023-06-26T01:29:14;100971.94;;;24.93;57.12
64095;BME280;50353;51.420;5.682;2023-06-26T01:31:40;100965.63;;;25.01;57.42
64095;BME280;50353;51.420;5.682;2023-06-26T01:34:07;100972.41;;;24.82;57.72
64095;BME280;50353;51.420;5.682;2023-06-26T01:36:32;100969.31;;;24.85;56.64
64095;BME280;50353;51.420;5.682;2023-06-26T01:38:57;100973.88;;;24.70;57.50
64095;BME280;50353;51.420;5.682;2023-06-26T01:41:23;100969.97;;;24.49;57.52
64095;BME280;50353;51.420;5.682;2023-06-26T01:44:03;100973.59;;;24.79;55.63
64095;BME280;50353;51.420;5.682;2023-06-26T01:46:40;100983.34;;;24.19;59.90
64095;BME280;50353;51.420;5.682;2023-06-26T01:51:38;100982.78;;;24.24;58.28
64095;BME280;50353;51.420;5.682;2023-06-26T01:54:10;100995.13;;;23.95;59.87
64095;BME280;50353;51.420;5.682;2023-06-26T01:56:39;100989.72;;;24.73;52.89
64095;BME280;50353;51.420;5.682;2023-06-26T01:59:05;100992.72;;;24.78;52.96
64095;BME280;50353;51.420;5.682;2023-06-26T02:01:32;101000.59;;;24.64;54.78
64095;BME280;50353;51.420;5.682;2023-06-26T02:03:59;101003.09;;;24.89;51.77
64095;BME280;50353;51.420;5.682;2023-06-26T02:06:24;101003.97;;;24.67;52.39
64095;BME280;50353;51.420;5.682;2023-06-26T02:08:49;101005.00;;;24.11;56.57
64095;BME280;50353;51.420;5.682;2023-06-26T02:11:15;101017.66;;;24.34;54.34
64095;BME280;50353;51.420;5.682;2023-06-26T02:13:40;101006.31;;;24.70;51.90
64095;BME280;50353;51.420;5.682;2023-06-26T02:16:05;101009.56;;;24.57;52.25
64095;BME280;50353;51.420;5.682;2023-06-26T02:18:30;101025.25;;;24.38;52.88
64095;BME280;50353;51.420;5.682;2023-06-26T02:20:56;101017.66;;;24.42;52.32
64095;BME280;50353;51.420;5.682;2023-06-26T02:23:21;101020.78;;;24.22;52.93
64095;BME280;50353;51.420;5.682;2023-06-26T02:25:46;101027.06;;;24.46;51.58
64095;BME280;50353;51.420;5.682;2023-06-26T02:28:11;101020.97;;;24.21;52.25
64095;BME280;50353;51.420;5.682;2023-06-26T02:30:37;101029.63;;;24.16;53.13
64095;BME280;50353;51.420;5.682;2023-06-26T02:33:02;101023.66;;;23.89;53.29
64095;BME280;50353;51.420;5.682;2023-06-26T02:35:27;101025.03;;;23.77;54.83
64095;BME280;50353;51.420;5.682;2023-06-26T02:37:52;101023.13;;;23.94;54.01
64095;BME280;50353;51.420;5.682;2023-06-26T02:40:18;101029.72;;;23.35;56.19
64095;BME280;50353;51.420;5.682;2023-06-26T02:42:43;101024.00;;;23.94;53.34
64095;BME280;50353;51.420;5.682;2023-06-26T02:45:09;101024.59;;;24.05;53.65
64095;BME280;50353;51.420;5.682;2023-06-26T02:47:34;101028.03;;;23.99;53.49
64095;BME280;50353;51.420;5.682;2023-06-26T02:49:59;101031.56;;;23.99;53.18
64095;BME280;50353;51.420;5.682;2023-06-26T02:52:25;101034.44;;;23.98;52.10
64095;BME280;50353;51.420;5.682;2023-06-26T02:54:50;101040.19;;;23.86;53.71
64095;BME280;50353;51.420;5.682;2023-06-26T02:57:15;101037.66;;;23.93;54.02
64095;BME280;50353;51.420;5.682;2023-06-26T02:59:42;101043.47;;;23.65;55.72
64095;BME280;50353;51.420;5.682;2023-06-26T03:02:07;101046.31;;;23.72;54.82
64095;BME280;50353;51.420;5.682;2023-06-26T03:04:32;101046.28;;;23.80;55.10
64095;BME280;50353;51.420;5.682;2023-06-26T03:07:01;101052.66;;;24.04;54.29
64095;BME280;50353;51.420;5.682;2023-06-26T03:09:27;101055.72;;;23.92;54.83
64095;BME280;50353;51.420;5.682;2023-06-26T03:11:52;101054.81;;;23.52;57.06
64095;BME280;50353;51.420;5.682;2023-06-26T03:14:18;101053.16;;;23.43;57.38
64095;BME280;50353;51.420;5.682;2023-06-26T03:16:43;101066.09;;;23.56;55.80
64095;BME280;50353;51.420;5.682;2023-06-26T03:19:09;101067.91;;;23.72;54.65
64095;BME280;50353;51.420;5.682;2023-06-26T03:21:34;101064.91;;;23.58;54.68
64095;BME280;50353;51.420;5.682;2023-06-26T03:23:59;101062.91;;;23.52;55.66
64095;BME280;50353;51.420;5.682;2023-06-26T03:26:25;101062.63;;;23.31;57.40
64095;BME280;50353;51.420;5.682;2023-06-26T03:28:53;101063.97;;;23.26;58.06
64095;BME280;50353;51.420;5.682;2023-06-26T03:31:18;101064.59;;;23.37;57.70
64095;BME280;50353;51.420;5.682;2023-06-26T03:33:44;101063.59;;;23.46;56.26
64095;BME280;50353;51.420;5.682;2023-06-26T03:36:09;101071.19;;;23.42;57.53
64095;BME280;50353;51.420;5.682;2023-06-26T03:38:34;101072.16;;;23.66;54.33
64095;BME280;50353;51.420;5.682;2023-06-26T03:40:59;101071.13;;;23.75;55.27
64095;BME280;50353;51.420;5.682;2023-06-26T03:43:25;101081.56;;;23.70;56.52
64095;BME280;50353;51.420;5.682;2023-06-26T03:45:50;101071.63;;;23.71;56.22
64095;BME280;50353;51.420;5.682;2023-06-26T03:48:15;101071.31;;;23.49;55.92
64095;BME280;50353;51.420;5.682;2023-06-26T03:50:41;101082.00;;;23.18;58.72
64095;BME280;50353;51.420;5.682;2023-06-26T03:53:06;101073.03;;;23.50;56.47
64095;BME280;50353;51.420;5.682;2023-06-26T03:55:31;101075.06;;;23.48;55.59
64095;BME280;50353;51.420;5.682;2023-06-26T03:57:56;101081.63;;;23.45;55.16
64095;BME280;50353;51.420;5.682;2023-06-26T04:00:22;101082.13;;;23.41;56.73
64095;BME280;50353;51.420;5.682;2023-06-26T04:02:47;101078.44;;;23.34;57.01
64095;BME280;50353;51.420;5.682;2023-06-26T04:05:12;101084.38;;;23.12;57.89
64095;BME280;50353;51.420;5.682;2023-06-26T04:07:38;101087.22;;;23.11;59.70
64095;BME280;50353;51.420;5.682;2023-06-26T04:10:03;101086.22;;;23.20;58.33
64095;BME280;50353;51.420;5.682;2023-06-26T04:12:29;101089.59;;;23.14;60.24
64095;BME280;50353;51.420;5.682;2023-06-26T04:14:54;101095.44;;;22.93;61.07
64095;BME280;50353;51.420;5.682;2023-06-26T04:17:19;101094.09;;;22.72;61.71
64095;BME280;50353;51.420;5.682;2023-06-26T04:19:45;101095.66;;;23.16;59.01
64095;BME280;50353;51.420;5.682;2023-06-26T04:22:11;101097.97;;;23.03;58.92
64095;BME280;50353;51.420;5.682;2023-06-26T04:24:36;101108.75;;;22.94;60.08
64095;BME280;50353;51.420;5.682;2023-06-26T04:27:01;101109.78;;;22.77;62.06
64095;BME280;50353;51.420;5.682;2023-06-26T04:29:27;101112.47;;;22.93;62.01
64095;BME280;50353;51.420;5.682;2023-06-26T04:31:53;101114.66;;;22.98;59.74
64095;BME280;50353;51.420;5.682;2023-06-26T04:34:26;101115.31;;;22.84;61.31
64095;BME280;50353;51.420;5.682;2023-06-26T04:36:51;101126.47;;;23.05;59.71
64095;BME280;50353;51.420;5.682;2023-06-26T04:39:17;101126.28;;;22.90;61.44
64095;BME280;50353;51.420;5.682;2023-06-26T04:41:42;101128.66;;;22.85;63.21
64095;BME280;50353;51.420;5.682;2023-06-26T04:44:07;101125.09;;;22.93;61.97
64095;BME280;50353;51.420;5.682;2023-06-26T04:46:33;101126.94;;;22.76;64.45
64095;BME280;50353;51.420;5.682;2023-06-26T04:48:58;101127.53;;;23.21;61.06
64095;BME280;50353;51.420;5.682;2023-06-26T04:51:26;101139.94;;;23.05;62.57
64095;BME280;50353;51.420;5.682;2023-06-26T04:53:52;101146.78;;;22.67;64.45
64095;BME280;50353;51.420;5.682;2023-06-26T04:56:17;101134.22;;;22.92;63.51
64095;BME280;50353;51.420;5.682;2023-06-26T04:58:43;101134.38;;;22.99;62.60
64095;BME280;50353;51.420;5.682;2023-06-26T05:01:08;101143.19;;;23.17;62.25
64095;BME280;50353;51.420;5.682;2023-06-26T05:03:33;101144.53;;;23.38;60.15
64095;BME280;50353;51.420;5.682;2023-06-26T05:05:59;101145.06;;;23.25;62.06
64095;BME280;50353;51.420;5.682;2023-06-26T05:08:24;101146.22;;;23.31;59.68
64095;BME280;50353;51.420;5.682;2023-06-26T05:10:53;101149.28;;;23.27;62.40
64095;BME280;50353;51.420;5.682;2023-06-26T05:13:25;101145.72;;;23.27;60.55
64095;BME280;50353;51.420;5.682;2023-06-26T05:15:51;101144.47;;;22.88;64.57
64095;BME280;50353;51.420;5.682;2023-06-26T05:18:17;101149.28;;;23.19;60.59
64095;BME280;50353;51.420;5.682;2023-06-26T05:20:42;101148.94;;;23.14;61.06
64095;BME280;50353;51.420;5.682;2023-06-26T05:23:10;101151.63;;;23.22;62.51
64095;BME280;50353;51.420;5.682;2023-06-26T05:25:36;101143.19;;;23.34;60.95
64095;BME280;50353;51.420;5.682;2023-06-26T05:28:02;101152.81;;;23.20;61.79
64095;BME280;50353;51.420;5.682;2023-06-26T05:30:30;101159.88;;;23.37;59.66
64095;BME280;50353;51.420;5.682;2023-06-26T05:32:59;101171.63;;;22.87;63.75
64095;BME280;50353;51.420;5.682;2023-06-26T05:35:28;101167.06;;;23.04;62.33
64095;BME280;50353;51.420;5.682;2023-06-26T05:37:54;101176.84;;;23.05;60.62
64095;BME280;50353;51.420;5.682;2023-06-26T05:40:20;101171.59;;;22.36;66.46
64095;BME280;50353;51.420;5.682;2023-06-26T05:42:46;101171.88;;;23.26;58.19
64095;BME280;50353;51.420;5.682;2023-06-26T05:45:11;101181.97;;;23.33;63.15
64095;BME280;50353;51.420;5.682;2023-06-26T05:47:37;101190.66;;;22.85;66.34
64095;BME280;50353;51.420;5.682;2023-06-26T05:50:03;101189.88;;;23.26;64.60
64095;BME280;50353;51.420;5.682;2023-06-26T05:52:28;101206.53;;;23.05;62.37
64095;BME280;50353;51.420;5.682;2023-06-26T05:54:55;101196.97;;;23.27;62.86
64095;BME280;50353;51.420;5.682;2023-06-26T05:57:24;101193.09;;;23.13;63.18
64095;BME280;50353;51.420;5.682;2023-06-26T05:59:49;101196.81;;;23.37;62.70
64095;BME280;50353;51.420;5.682;2023-06-26T06:02:15;101205.88;;;23.11;64.11
64095;BME280;50353;51.420;5.682;2023-06-26T06:04:40;101197.50;;;23.39;62.09
64095;BME280;50353;51.420;5.682;2023-06-26T06:07:06;101205.75;;;23.21;62.26
64095;BME280;50353;51.420;5.682;2023-06-26T06:09:31;101208.09;;;23.57;60.41
64095;BME280;50353;51.420;5.682;2023-06-26T06:11:56;101215.38;;;23.65;60.22
64095;BME280;50353;51.420;5.682;2023-06-26T06:14:21;101215.72;;;23.61;61.69
64095;BME280;50353;51.420;5.682;2023-06-26T06:16:47;101220.56;;;23.83;61.07
64095;BME280;50353;51.420;5.682;2023-06-26T06:19:12;101225.78;;;24.09;59.05
64095;BME280;50353;51.420;5.682;2023-06-26T06:21:38;101232.06;;;24.01;59.60
64095;BME280;50353;51.420;5.682;2023-06-26T06:24:04;101236.34;;;24.43;56.60
64095;BME280;50353;51.420;5.682;2023-06-26T06:26:30;101236.84;;;24.39;56.11
64095;BME280;50353;51.420;5.682;2023-06-26T06:28:55;101239.56;;;24.39;57.82
64095;BME280;50353;51.420;5.682;2023-06-26T06:31:20;101246.03;;;24.13;58.29
64095;BME280;50353;51.420;5.682;2023-06-26T06:33:45;101246.00;;;24.21;55.20
64095;BME280;50353;51.420;5.682;2023-06-26T06:36:11;101251.19;;;24.47;56.49
64095;BME280;50353;51.420;5.682;2023-06-26T06:38:36;101264.69;;;24.64;55.25
64095;BME280;50353;51.420;5.682;2023-06-26T06:41:01;101251.16;;;24.64;57.07
64095;BME280;50353;51.420;5.682;2023-06-26T06:43:27;101251.50;;;24.53;57.05
64095;BME280;50353;51.420;5.682;2023-06-26T06:45:52;101254.53;;;24.66;56.06
64095;BME280;50353;51.420;5.682;2023-06-26T06:48:17;101248.50;;;25.19;55.34
64095;BME280;50353;51.420;5.682;2023-06-26T06:50:42;101246.41;;;25.29;54.01
64095;BME280;50353;51.420;5.682;2023-06-26T06:53:08;101252.75;;;24.90;56.50
64095;BME280;50353;51.420;5.682;2023-06-26T06:55:33;101255.34;;;24.75;56.51
64095;BME280;50353;51.420;5.682;2023-06-26T06:57:58;101268.56;;;24.53;56.88
64095;BME280;50353;51.420;5.682;2023-06-26T07:00:24;101264.22;;;24.92;56.88
64095;BME280;50353;51.420;5.682;2023-06-26T07:02:49;101274.41;;;25.44;53.97
64095;BME280;50353;51.420;5.682;2023-06-26T07:05:15;101283.44;;;25.28;54.28
64095;BME280;50353;51.420;5.682;2023-06-26T07:07:41;101275.44;;;25.67;53.19
64095;BME280;50353;51.420;5.682;2023-06-26T07:10:09;101283.34;;;25.91;53.02
64095;BME280;50353;51.420;5.682;2023-06-26T07:12:35;101285.00;;;25.54;54.04
64095;BME280;50353;51.420;5.682;2023-06-26T07:15:02;101277.28;;;25.89;53.44
64095;BME280;50353;51.420;5.682;2023-06-26T07:17:28;101299.59;;;26.14;52.82
64095;BME280;50353;51.420;5.682;2023-06-26T07:19:53;101297.06;;;26.13;52.60
64095;BME280;50353;51.420;5.682;2023-06-26T07:22:18;101305.19;;;26.13;52.52
64095;BME280;50353;51.420;5.682;2023-06-26T07:24:47;101303.22;;;25.60;53.43
64095;BME280;50353;51.420;5.682;2023-06-26T07:27:14;101308.81;;;25.27;54.44
64095;BME280;50353;51.420;5.682;2023-06-26T07:29:40;101309.88;;;25.58;54.22
64095;BME280;50353;51.420;5.682;2023-06-26T07:32:05;101307.97;;;26.05;52.84
64095;BME280;50353;51.420;5.682;2023-06-26T07:34:30;101312.59;;;26.19;53.40
64095;BME280;50353;51.420;5.682;2023-06-26T07:36:56;101311.72;;;26.04;52.18
64095;BME280;50353;51.420;5.682;2023-06-26T07:39:21;101324.03;;;25.83;53.41
64095;BME280;50353;51.420;5.682;2023-06-26T07:41:46;101335.06;;;25.27;53.94
64095;BME280;50353;51.420;5.682;2023-06-26T07:44:12;101324.22;;;25.27;54.78
64095;BME280;50353;51.420;5.682;2023-06-26T07:46:37;101325.78;;;24.82;56.98
64095;BME280;50353;51.420;5.682;2023-06-26T07:49:02;101328.88;;;25.10;55.53
64095;BME280;50353;51.420;5.682;2023-06-26T07:51:27;101339.19;;;25.46;54.80
64095;BME280;50353;51.420;5.682;2023-06-26T07:53:53;101344.91;;;24.55;57.00
64095;BME280;50353;51.420;5.682;2023-06-26T07:56:18;101345.66;;;25.68;54.00
64095;BME280;50353;51.420;5.682;2023-06-26T07:58:44;101345.81;;;25.90;53.17
64095;BME280;50353;51.420;5.682;2023-06-26T08:01:09;101349.25;;;26.07;52.48
64095;BME280;50353;51.420;5.682;2023-06-26T08:03:34;101340.22;;;25.91;53.72
64095;BME280;50353;51.420;5.682;2023-06-26T08:05:59;101345.72;;;24.80;55.90
64095;BME280;50353;51.420;5.682;2023-06-26T08:08:25;101346.25;;;24.76;56.26
64095;BME280;50353;51.420;5.682;2023-06-26T08:10:50;101355.59;;;25.13;55.46
64095;BME280;50353;51.420;5.682;2023-06-26T08:13:15;101345.31;;;25.00;55.61
64095;BME280;50353;51.420;5.682;2023-06-26T08:15:41;101354.13;;;25.65;54.40
64095;BME280;50353;51.420;5.682;2023-06-26T08:18:06;101342.50;;;24.85;55.53
64095;BME280;50353;51.420;5.682;2023-06-26T08:20:31;101345.13;;;25.02;55.36
64095;BME280;50353;51.420;5.682;2023-06-26T08:22:57;101350.47;;;25.18;55.90
64095;BME280;50353;51.420;5.682;2023-06-26T08:25:22;101354.44;;;25.93;53.54
64095;BME280;50353;51.420;5.682;2023-06-26T08:27:47;101365.44;;;26.15;52.54
64095;BME280;50353;51.420;5.682;2023-06-26T08:30:13;101360.19;;;26.52;51.02
64095;BME280;50353;51.420;5.682;2023-06-26T08:32:39;101354.78;;;26.66;51.51
64095;BME280;50353;51.420;5.682;2023-06-26T08:35:06;101356.75;;;26.43;52.59
64095;BME280;50353;51.420;5.682;2023-06-26T08:37:31;101370.81;;;26.00;51.34
64095;BME280;50353;51.420;5.682;2023-06-26T08:39:58;101357.56;;;24.79;54.79
64095;BME280;50353;51.420;5.682;2023-06-26T08:42:23;101361.50;;;25.08;55.02
64095;BME280;50353;51.420;5.682;2023-06-26T08:44:49;101369.25;;;25.20;54.61
64095;BME280;50353;51.420;5.682;2023-06-26T08:47:15;101367.47;;;26.36;51.73
64095;BME280;50353;51.420;5.682;2023-06-26T08:49:49;101370.88;;;26.15;51.61
64095;BME280;50353;51.420;5.682;2023-06-26T08:52:23;101363.19;;;24.61;51.61
64095;BME280;50353;51.420;5.682;2023-06-26T08:54:54;101376.28;;;24.89;50.76
64095;BME280;50353;51.420;5.682;2023-06-26T08:57:23;101380.41;;;24.52;50.31
64095;BME280;50353;51.420;5.682;2023-06-26T08:59:49;101380.22;;;24.54;48.95
64095;BME280;50353;51.420;5.682;2023-06-26T09:02:14;101390.06;;;24.22;49.03
64095;BME280;50353;51.420;5.682;2023-06-26T09:04:40;101394.59;;;24.05;49.78
64095;BME280;50353;51.420;5.682;2023-06-26T09:07:07;101388.22;;;25.03;48.18
64095;BME280;50353;51.420;5.682;2023-06-26T09:09:32;101391.41;;;26.09;47.15
64095;BME280;50353;51.420;5.682;2023-06-26T09:11:57;101393.53;;;26.22;47.99
64095;BME280;50353;51.420;5.682;2023-06-26T09:14:23;101392.47;;;26.08;48.20
64095;BME280;50353;51.420;5.682;2023-06-26T09:16:49;101392.75;;;27.56;45.31
64095;BME280;50353;51.420;5.682;2023-06-26T09:19:15;101392.00;;;27.62;44.95
64095;BME280;50353;51.420;5.682;2023-06-26T09:21:42;101399.22;;;27.25;43.93
64095;BME280;50353;51.420;5.682;2023-06-26T09:24:08;101404.97;;;27.01;41.16
64095;BME280;50353;51.420;5.682;2023-06-26T09:26:37;101406.00;;;27.66;42.27
64095;BME280;50353;51.420;5.682;2023-06-26T09:29:04;101404.94;;;27.82;42.55
64095;BME280;50353;51.420;5.682;2023-06-26T09:31:30;101414.53;;;27.63;40.84
64095;BME280;50353;51.420;5.682;2023-06-26T09:33:58;101406.25;;;27.49;40.80
64095;BME280;50353;51.420;5.682;2023-06-26T09:36:28;101408.94;;;27.35;43.55
64095;BME280;50353;51.420;5.682;2023-06-26T09:38:54;101403.47;;;28.23;41.22
64095;BME280;50353;51.420;5.682;2023-06-26T09:41:20;101413.84;;;27.76;41.22
64095;BME280;50353;51.420;5.682;2023-06-26T09:43:49;101410.09;;;26.95;41.77
64095;BME280;50353;51.420;5.682;2023-06-26T09:46:28;101408.13;;;27.19;42.90
64095;BME280;50353;51.420;5.682;2023-06-26T09:49:08;101425.16;;;28.16;40.17
64095;BME280;50353;51.420;5.682;2023-06-26T09:51:34;101439.09;;;27.91;39.67
64095;BME280;50353;51.420;5.682;2023-06-26T09:54:01;101433.88;;;28.11;38.65
64095;BME280;50353;51.420;5.682;2023-06-26T09:56:27;101444.50;;;27.70;41.56
64095;BME280;50353;51.420;5.682;2023-06-26T09:58:55;101448.47;;;28.04;36.58
64095;BME280;50353;51.420;5.682;2023-06-26T10:01:22;101433.78;;;28.48;36.73
64095;BME280;50353;51.420;5.682;2023-06-26T10:03:47;101443.63;;;28.71;35.04
64095;BME280;50353;51.420;5.682;2023-06-26T10:06:13;101436.09;;;29.08;39.48
64095;BME280;50353;51.420;5.682;2023-06-26T10:08:40;101428.09;;;29.34;36.19
64095;BME280;50353;51.420;5.682;2023-06-26T10:11:11;101431.78;;;29.20;36.99
64095;BME280;50353;51.420;5.682;2023-06-26T10:13:42;101435.84;;;29.99;35.93
64095;BME280;50353;51.420;5.682;2023-06-26T10:16:11;101445.59;;;28.12;39.96
64095;BME280;50353;51.420;5.682;2023-06-26T10:18:39;101446.13;;;27.64;38.47
64095;BME280;50353;51.420;5.682;2023-06-26T10:21:06;101464.84;;;28.60;36.59
64095;BME280;50353;51.420;5.682;2023-06-26T10:23:34;101459.69;;;28.44;35.08
64095;BME280;50353;51.420;5.682;2023-06-26T10:26:00;101461.94;;;29.18;35.77
64095;BME280;50353;51.420;5.682;2023-06-26T10:28:28;101455.22;;;29.56;32.58
64095;BME280;50353;51.420;5.682;2023-06-26T10:30:55;101458.41;;;29.73;34.07
64095;BME280;50353;51.420;5.682;2023-06-26T10:33:21;101452.56;;;29.83;35.55
64095;BME280;50353;51.420;5.682;2023-06-26T10:35:47;101458.34;;;29.11;36.98
64095;BME280;50353;51.420;5.682;2023-06-26T10:38:12;101462.31;;;28.59;33.13
64095;BME280;50353;51.420;5.682;2023-06-26T10:40:46;101463.81;;;29.18;33.47
64095;BME280;50353;51.420;5.682;2023-06-26T10:43:14;101454.59;;;29.61;36.30
64095;BME280;50353;51.420;5.682;2023-06-26T10:45:47;101468.16;;;29.96;32.98
64095;BME280;50353;51.420;5.682;2023-06-26T10:48:17;101480.81;;;29.62;33.72
64095;BME280;50353;51.420;5.682;2023-06-26T10:50:43;101471.28;;;29.86;32.94
64095;BME280;50353;51.420;5.682;2023-06-26T10:55:58;101473.59;;;28.77;34.38
64095;BME280;50353;51.420;5.682;2023-06-26T10:58:40;101482.03;;;29.53;31.25
64095;BME280;50353;51.420;5.682;2023-06-26T11:04:03;101483.75;;;29.60;32.27
64095;BME280;50353;51.420;5.682;2023-06-26T11:06:27;101486.78;;;29.86;31.90
64095;BME280;50353;51.420;5.682;2023-06-26T11:08:54;101478.47;;;30.14;32.03
64095;BME280;50353;51.420;5.682;2023-06-26T11:14:19;101470.53;;;30.59;35.06
64095;BME280;50353;51.420;5.682;2023-06-26T11:16:45;101483.97;;;29.72;32.42
64095;BME280;50353;51.420;5.682;2023-06-26T11:19:10;101485.44;;;30.70;34.20
64095;BME280;50353;51.420;5.682;2023-06-26T11:21:39;101482.41;;;29.43;34.45
64095;BME280;50353;51.420;5.682;2023-06-26T11:24:06;101489.28;;;29.04;34.47
64095;BME280;50353;51.420;5.682;2023-06-26T11:26:41;101512.19;;;28.01;34.16
64095;BME280;50353;51.420;5.682;2023-06-26T11:29:07;101505.97;;;27.71;35.94
64095;BME280;50353;51.420;5.682;2023-06-26T11:31:37;101503.72;;;28.11;34.03
64095;BME280;50353;51.420;5.682;2023-06-26T11:34:09;101514.06;;;28.22;33.55
64095;BME280;50353;51.420;5.682;2023-06-26T11:36:37;101505.44;;;27.97;33.11
64095;BME280;50353;51.420;5.682;2023-06-26T11:39:05;101514.03;;;27.49;32.49
64095;BME280;50353;51.420;5.682;2023-06-26T11:41:32;101505.94;;;28.44;33.37
64095;BME280;50353;51.420;5.682;2023-06-26T11:44:08;101525.00;;;28.94;34.73
64095;BME280;50353;51.420;5.682;2023-06-26T11:46:35;101528.41;;;29.66;31.64
64095;BME280;50353;51.420;5.682;2023-06-26T11:49:04;101522.22;;;29.44;31.50
64095;BME280;50353;51.420;5.682;2023-06-26T11:51:30;101524.38;;;29.97;31.41
64095;BME280;50353;51.420;5.682;2023-06-26T11:53:55;101549.50;;;29.22;31.01
64095;BME280;50353;51.420;5.682;2023-06-26T11:56:21;101546.19;;;28.70;31.33
64095;BME280;50353;51.420;5.682;2023-06-26T11:59:09;101555.78;;;29.23;33.58
64095;BME280;50353;51.420;5.682;2023-06-26T12:01:41;101556.13;;;28.84;34.94
64095;BME280;50353;51.420;5.682;2023-06-26T12:04:09;101543.81;;;28.45;32.39
64095;BME280;50353;51.420;5.682;2023-06-26T12:06:40;101560.34;;;28.65;33.67
64095;BME280;50353;51.420;5.682;2023-06-26T12:09:08;101562.09;;;28.95;33.06
64095;BME280;50353;51.420;5.682;2023-06-26T12:11:40;101554.19;;;30.05;35.68
64095;BME280;50353;51.420;5.682;2023-06-26T12:14:06;101560.69;;;30.11;33.93
64095;BME280;50353;51.420;5.682;2023-06-26T12:16:34;101555.56;;;30.63;32.59
64095;BME280;50353;51.420;5.682;2023-06-26T12:19:03;101557.34;;;28.17;35.13
64095;BME280;50353;51.420;5.682;2023-06-26T12:21:43;101568.88;;;28.04;34.53
64095;BME280;50353;51.420;5.682;2023-06-26T12:24:12;101562.88;;;27.34;36.01
64095;BME280;50353;51.420;5.682;2023-06-26T12:26:38;101559.91;;;27.59;34.21
64095;BME280;50353;51.420;5.682;2023-06-26T12:31:32;101564.53;;;26.36;35.16
64095;BME280;50353;51.420;5.682;2023-06-26T12:33:59;101558.84;;;27.30;35.38
64095;BME280;50353;51.420;5.682;2023-06-26T12:36:24;101569.22;;;26.42;36.32
64095;BME280;50353;51.420;5.682;2023-06-26T12:38:53;101574.00;;;27.24;36.57
64095;BME280;50353;51.420;5.682;2023-06-26T12:41:19;101571.78;;;27.88;35.63
64095;BME280;50353;51.420;5.682;2023-06-26T12:43:45;101565.44;;;27.80;33.94
64095;BME280;50353;51.420;5.682;2023-06-26T12:46:11;101556.72;;;27.40;35.07
64095;BME280;50353;51.420;5.682;2023-06-26T12:48:40;101559.97;;;27.36;34.26
64095;BME280;50353;51.420;5.682;2023-06-26T12:51:11;101568.84;;;27.29;35.27
64095;BME280;50353;51.420;5.682;2023-06-26T12:53:37;101564.22;;;27.00;36.61
64095;BME280;50353;51.420;5.682;2023-06-26T12:56:05;101564.03;;;27.70;33.93
64095;BME280;50353;51.420;5.682;2023-06-26T12:58:30;101558.13;;;28.32;33.61
64095;BME280;50353;51.420;5.682;2023-06-26T13:00:56;101561.94;;;29.03;33.61